createdAt,value
2023-07-06T00:02:51.678Z,14.28
2023-07-06T00:06:57.189Z,14.36
2023-07-06T00:10:59.449Z,14.44
2023-07-06T00:15:01.570Z,14.48
2023-07-06T00:19:04.912Z,14.50
2023-07-06T00:23:09.392Z,14.53
2023-07-06T00:27:11.486Z,14.52
2023-07-06T00:31:22.231Z,14.42
2023-07-06T00:35:25.432Z,14.32
2023-07-06T00:39:27.487Z,14.20
2023-07-06T00:43:51.670Z,14.08
2023-07-06T00:47:57.861Z,13.98
2023-07-06T00:52:02.023Z,13.89
2023-07-06T00:56:06.031Z,13.80
2023-07-06T01:00:08.629Z,13.72
2023-07-06T01:04:14.708Z,13.64
2023-07-06T01:08:21.400Z,13.59
2023-07-06T01:12:25.553Z,13.54
2023-07-06T01:16:39.819Z,13.45
2023-07-06T01:21:20.312Z,13.37
2023-07-06T01:25:33.249Z,13.31
2023-07-06T01:30:05.048Z,13.25
2023-07-06T01:34:22.041Z,13.13
2023-07-06T01:38:24.266Z,12.99
2023-07-06T01:42:33.413Z,12.91
2023-07-06T01:46:35.524Z,12.89
2023-07-06T01:50:52.414Z,12.83
2023-07-06T01:55:10.268Z,12.79
2023-07-06T01:59:18.175Z,12.78
2023-07-06T02:03:21.731Z,12.64
2023-07-06T02:07:24.643Z,12.52
2023-07-06T02:11:26.723Z,12.52
2023-07-06T02:15:29.634Z,12.42
2023-07-06T02:19:33.418Z,12.34
2023-07-06T02:23:35.768Z,12.24
2023-07-06T02:27:37.871Z,12.15
2023-07-06T02:31:39.992Z,12.00
2023-07-06T02:35:43.206Z,11.97
2023-07-06T02:39:45.804Z,11.91
2023-07-06T02:43:47.846Z,11.89
2023-07-06T02:47:49.946Z,11.62
2023-07-06T02:51:53.143Z,11.28
2023-07-06T02:55:55.716Z,11.07
2023-07-06T02:59:58.092Z,10.95
2023-07-06T03:04:00.169Z,10.84
2023-07-06T03:08:03.615Z,10.74
2023-07-06T03:12:06.894Z,10.64
2023-07-06T03:16:10.114Z,10.66
2023-07-06T03:20:15.408Z,10.64
2023-07-06T03:24:18.063Z,10.72
2023-07-06T03:28:21.745Z,10.73
2023-07-06T03:32:26.355Z,10.81
2023-07-06T03:36:28.490Z,10.76
2023-07-06T03:40:31.769Z,10.76
2023-07-06T03:44:33.864Z,10.78
2023-07-06T03:48:35.922Z,10.69
2023-07-06T03:52:38.944Z,10.63
2023-07-06T03:56:41.044Z,10.60
2023-07-06T04:00:43.206Z,10.83
2023-07-06T04:04:45.270Z,12.76
2023-07-06T04:08:47.741Z,14.78
2023-07-06T04:12:50.655Z,16.22
2023-07-06T04:16:55.515Z,17.37
2023-07-06T04:20:59.665Z,18.30
2023-07-06T04:25:01.789Z,19.36
2023-07-06T04:29:05.449Z,20.67
2023-07-06T04:33:10.806Z,21.82
2023-07-06T04:37:13.688Z,22.78
2023-07-06T04:41:16.360Z,23.81
2023-07-06T04:45:19.372Z,24.72
2023-07-06T04:49:21.852Z,25.58
2023-07-06T04:53:24.555Z,25.31
2023-07-06T04:57:26.625Z,26.10
2023-07-06T05:01:28.662Z,27.30
2023-07-06T05:05:46.286Z,28.23
2023-07-06T05:09:51.318Z,28.61
2023-07-06T05:13:53.393Z,29.28
2023-07-06T05:17:55.783Z,29.98
2023-07-06T05:21:58.154Z,30.75
2023-07-06T05:26:04.092Z,31.40
2023-07-06T05:30:07.147Z,32.02
2023-07-06T05:34:09.528Z,32.96
2023-07-06T05:38:11.847Z,33.66
2023-07-06T05:42:14.407Z,34.28
2023-07-06T05:46:16.452Z,34.67
2023-07-06T05:50:18.594Z,35.27
2023-07-06T05:54:20.643Z,35.74
2023-07-06T05:58:23.236Z,35.96
2023-07-06T06:02:36.218Z,36.58
2023-07-06T06:06:51.627Z,36.97
2023-07-06T06:10:53.736Z,36.63
2023-07-06T06:14:56.075Z,36.05
2023-07-06T06:18:58.197Z,36.36
2023-07-06T06:23:00.934Z,37.05
2023-07-06T06:27:03.279Z,36.81
2023-07-06T06:31:05.408Z,36.58
2023-07-06T06:35:25.498Z,36.64
2023-07-06T06:39:27.572Z,37.25
2023-07-06T06:43:29.696Z,37.54
2023-07-06T06:47:31.916Z,37.78
2023-07-06T06:51:34.094Z,37.96
2023-07-06T06:55:36.188Z,38.73
2023-07-06T06:59:38.304Z,39.11
2023-07-06T07:03:40.761Z,38.88
2023-07-06T07:07:43.138Z,38.26
2023-07-06T07:11:45.214Z,38.39
2023-07-06T07:15:47.421Z,38.77
2023-07-06T07:19:50.055Z,38.74
2023-07-06T07:23:52.149Z,35.16
2023-07-06T07:27:55.750Z,30.22
2023-07-06T07:31:57.871Z,27.24
2023-07-06T07:36:01.796Z,25.37
2023-07-06T07:40:06.347Z,24.09
2023-07-06T07:44:09.955Z,23.04
2023-07-06T07:48:11.997Z,22.56
2023-07-06T07:52:14.963Z,22.18
2023-07-06T07:56:17.651Z,21.88
2023-07-06T08:00:21.527Z,21.75
2023-07-06T08:04:23.747Z,21.59
2023-07-06T08:08:26.550Z,21.40
2023-07-06T08:12:28.654Z,21.33
2023-07-06T08:16:33.602Z,21.14
2023-07-06T08:20:58.410Z,21.15
2023-07-06T08:24:58.515Z,21.19
2023-07-06T08:29:00.572Z,21.00
2023-07-06T08:33:02.828Z,20.89
2023-07-06T08:37:05.294Z,20.75
2023-07-06T08:41:30.823Z,20.69
2023-07-06T08:45:43.322Z,20.77
2023-07-06T08:49:46.706Z,20.78
2023-07-06T08:53:56.134Z,20.80
2023-07-06T08:57:58.612Z,20.74
2023-07-06T09:02:21.922Z,20.51
2023-07-06T09:06:27.373Z,20.24
2023-07-06T09:10:29.932Z,20.22
2023-07-06T09:14:32.584Z,20.26
2023-07-06T09:18:34.671Z,20.16
2023-07-06T09:22:41.279Z,20.31
2023-07-06T09:26:45.713Z,20.41
2023-07-06T09:30:52.132Z,20.38
2023-07-06T09:35:05.935Z,20.46
2023-07-06T09:39:15.451Z,20.53
2023-07-06T09:43:28.870Z,20.67
2023-07-06T09:47:34.572Z,20.93
2023-07-06T09:51:45.147Z,20.97
2023-07-06T09:55:47.212Z,21.02
2023-07-06T09:59:50.478Z,21.01
2023-07-06T10:04:22.082Z,20.98
2023-07-06T10:09:04.506Z,21.14
2023-07-06T10:13:17.298Z,21.24
2023-07-06T10:17:35.703Z,21.23
2023-07-06T10:21:48.042Z,21.25
2023-07-06T10:26:04.242Z,21.40
2023-07-06T10:30:13.755Z,21.62
2023-07-06T10:34:24.388Z,21.85
2023-07-06T10:38:27.018Z,21.90
2023-07-06T10:42:32.902Z,21.65
2023-07-06T10:46:37.511Z,21.77
2023-07-06T10:50:48.866Z,21.92
2023-07-06T10:54:51.677Z,21.58
2023-07-06T10:59:01.726Z,21.72
2023-07-06T11:03:05.453Z,21.93
2023-07-06T11:07:12.832Z,22.17
2023-07-06T11:11:22.047Z,22.26
2023-07-06T11:16:01.318Z,22.23
2023-07-06T11:20:16.162Z,22.35
2023-07-06T11:24:23.531Z,22.40
2023-07-06T11:28:26.192Z,22.48
2023-07-06T11:32:38.070Z,22.60
2023-07-06T11:36:56.578Z,22.66
2023-07-06T11:41:27.387Z,22.61
2023-07-06T11:45:41.163Z,22.55
2023-07-06T11:49:46.348Z,22.68
2023-07-06T11:53:53.597Z,22.74
2023-07-06T11:58:06.361Z,22.85
2023-07-06T12:02:18.896Z,22.56
2023-07-06T12:06:21.837Z,22.60
2023-07-06T12:10:24.396Z,22.61
2023-07-06T12:14:28.394Z,22.35
2023-07-06T12:18:33.463Z,22.21
2023-07-06T12:22:35.508Z,22.40
2023-07-06T12:26:43.913Z,22.51
2023-07-06T12:30:50.404Z,22.65
2023-07-06T12:34:54.605Z,22.67
2023-07-06T12:38:57.751Z,22.85
2023-07-06T12:43:01.475Z,22.99
2023-07-06T12:47:23.477Z,22.90
2023-07-06T12:51:26.583Z,22.74
2023-07-06T12:55:33.307Z,22.63
2023-07-06T12:59:37.733Z,22.65
2023-07-06T13:03:47.527Z,22.69
2023-07-06T13:07:51.963Z,22.88
2023-07-06T13:12:08.934Z,23.02
2023-07-06T13:16:15.369Z,22.71
2023-07-06T13:20:17.807Z,22.76
2023-07-06T13:24:22.620Z,22.74
2023-07-06T13:28:24.780Z,22.77
2023-07-06T13:32:28.655Z,22.88
2023-07-06T13:36:30.729Z,23.06
2023-07-06T13:40:35.439Z,23.41
2023-07-06T13:44:37.724Z,23.70
2023-07-06T13:48:41.034Z,23.71
2023-07-06T13:52:43.135Z,23.81
2023-07-06T13:56:46.496Z,23.99
2023-07-06T14:00:49.393Z,24.13
2023-07-06T14:04:51.441Z,24.32
2023-07-06T14:08:53.532Z,24.55
2023-07-06T14:12:55.596Z,24.43
2023-07-06T14:16:57.705Z,24.52
2023-07-06T14:21:06.262Z,24.58
2023-07-06T14:25:23.138Z,24.54
2023-07-06T14:29:27.905Z,24.34
2023-07-06T14:33:29.971Z,24.46
2023-07-06T14:37:32.302Z,24.53
2023-07-06T14:41:34.342Z,24.71
2023-07-06T14:45:37.512Z,24.44
2023-07-06T14:49:40.198Z,24.36
2023-07-06T14:53:42.733Z,24.25
2023-07-06T14:57:45.464Z,24.03
2023-07-06T15:01:47.583Z,23.89
2023-07-06T15:05:51.452Z,23.90
2023-07-06T15:09:53.639Z,23.75
2023-07-06T15:13:55.799Z,23.82
2023-07-06T15:17:57.915Z,23.97
2023-07-06T15:22:00.082Z,23.92
2023-07-06T15:26:02.131Z,23.71
2023-07-06T15:30:04.951Z,23.60
2023-07-06T15:34:07.089Z,23.47
2023-07-06T15:38:09.222Z,23.39
2023-07-06T15:42:11.288Z,23.39
2023-07-06T15:46:13.388Z,23.38
2023-07-06T15:50:17.066Z,23.28
2023-07-06T15:54:19.136Z,23.25
2023-07-06T15:58:21.186Z,23.28
2023-07-06T16:02:23.454Z,23.34
2023-07-06T16:06:28.616Z,23.21
2023-07-06T16:10:30.860Z,23.08
2023-07-06T16:14:32.929Z,23.25
2023-07-06T16:18:35.046Z,23.45
2023-07-06T16:22:37.166Z,23.44
2023-07-06T16:26:39.405Z,23.55
2023-07-06T16:30:41.499Z,23.67
2023-07-06T16:34:44.212Z,23.56
2023-07-06T16:38:46.794Z,23.45
2023-07-06T16:42:48.858Z,23.50
2023-07-06T16:46:50.973Z,23.52
2023-07-06T16:50:56.860Z,23.45
2023-07-06T16:54:59.089Z,23.37
2023-07-06T16:59:01.142Z,23.32
2023-07-06T17:03:03.366Z,23.28
2023-07-06T17:07:06.458Z,23.25
2023-07-06T17:11:10.585Z,23.15
2023-07-06T17:15:12.629Z,23.17
2023-07-06T17:19:14.728Z,23.10
2023-07-06T17:23:16.820Z,23.05
2023-07-06T17:27:19.068Z,23.08
2023-07-06T17:31:21.415Z,23.09
2023-07-06T17:35:23.607Z,23.06
2023-07-06T17:39:25.729Z,23.02
2023-07-06T17:43:28.468Z,22.88
2023-07-06T17:47:31.374Z,22.77
2023-07-06T17:51:33.420Z,22.73
2023-07-06T17:55:35.560Z,22.68
2023-07-06T17:59:37.698Z,22.68
2023-07-06T18:03:39.818Z,22.65
2023-07-06T18:07:42.328Z,22.50
2023-07-06T18:11:44.384Z,22.42
2023-07-06T18:15:47.210Z,22.31
2023-07-06T18:19:49.481Z,22.21
2023-07-06T18:23:51.524Z,22.11
2023-07-06T18:27:54.304Z,22.03
2023-07-06T18:31:56.569Z,21.90
2023-07-06T18:35:58.783Z,21.80
2023-07-06T18:40:00.984Z,21.65
2023-07-06T18:44:03.227Z,21.50
2023-07-06T18:48:05.761Z,21.27
2023-07-06T18:52:08.128Z,21.00
2023-07-06T18:56:10.232Z,20.77
2023-07-06T19:00:12.685Z,20.57
2023-07-06T19:04:14.879Z,20.37
2023-07-06T19:08:16.953Z,20.23
2023-07-06T19:12:19.016Z,20.06
2023-07-06T19:16:21.668Z,19.86
2023-07-06T19:20:23.758Z,19.64
2023-07-06T19:24:25.946Z,19.43
2023-07-06T19:28:28.032Z,19.17
2023-07-06T19:32:30.128Z,18.93
2023-07-06T19:36:32.621Z,18.78
2023-07-06T19:40:34.724Z,18.62
2023-07-06T19:44:36.770Z,18.51
2023-07-06T19:48:41.173Z,18.35
2023-07-06T19:52:43.342Z,18.16
2023-07-06T19:56:45.400Z,17.99
2023-07-06T20:00:50.425Z,17.82
2023-07-06T20:04:58.956Z,17.59
2023-07-06T20:09:01.130Z,17.45
2023-07-06T20:13:03.175Z,17.38
2023-07-06T20:17:05.477Z,17.35
2023-07-06T20:21:08.010Z,17.17
2023-07-06T20:25:11.754Z,16.88
2023-07-06T20:29:15.111Z,16.60
2023-07-06T20:33:17.758Z,16.50
2023-07-06T20:37:19.797Z,16.50
2023-07-06T20:41:21.873Z,16.45
2023-07-06T20:45:23.928Z,16.43
2023-07-06T20:49:26.048Z,16.39
2023-07-06T20:53:28.502Z,16.30
2023-07-06T20:57:30.550Z,16.20
2023-07-06T21:01:32.660Z,16.11
2023-07-06T21:05:34.818Z,16.04
2023-07-06T21:09:37.788Z,16.02
2023-07-06T21:13:40.728Z,15.91
2023-07-06T21:17:42.869Z,15.83
2023-07-06T21:21:46.228Z,15.73
2023-07-06T21:25:48.291Z,15.61
2023-07-06T21:29:50.415Z,15.52
2023-07-06T21:33:52.521Z,15.34
2023-07-06T21:37:54.571Z,15.24
2023-07-06T21:41:56.651Z,15.06
2023-07-06T21:45:58.808Z,14.99
2023-07-06T21:50:00.931Z,14.91
2023-07-06T21:54:03.408Z,14.85
2023-07-06T21:58:05.502Z,14.60
2023-07-06T22:02:07.595Z,14.21
2023-07-06T22:06:12.199Z,13.95
2023-07-06T22:10:15.539Z,13.74
2023-07-06T22:14:17.635Z,13.50
2023-07-06T22:18:19.667Z,13.42
2023-07-06T22:22:21.766Z,13.43
2023-07-06T22:26:23.853Z,13.21
2023-07-06T22:30:25.907Z,13.02
2023-07-06T22:34:27.943Z,12.96
2023-07-06T22:38:29.985Z,12.91
2023-07-06T22:42:32.077Z,12.76
2023-07-06T22:46:34.324Z,12.75
2023-07-06T22:50:36.745Z,12.78
2023-07-06T22:54:38.807Z,12.84
2023-07-06T22:58:40.902Z,12.55
2023-07-06T23:02:43.620Z,12.22
2023-07-06T23:06:48.459Z,12.08
2023-07-06T23:10:51.647Z,12.18
2023-07-06T23:14:56.722Z,12.21
2023-07-06T23:18:59.772Z,12.04
2023-07-06T23:23:01.910Z,11.90
2023-07-06T23:27:04.324Z,11.88
2023-07-06T23:31:11.250Z,11.86
2023-07-06T23:35:15.224Z,11.74
2023-07-06T23:39:17.387Z,11.61
2023-07-06T23:43:19.508Z,11.62
2023-07-06T23:47:21.645Z,11.67
2023-07-06T23:51:25.013Z,11.70
2023-07-06T23:55:27.136Z,11.54
2023-07-06T23:59:29.180Z,11.24
